createdAt,value
2022-11-13T00:00:35.307Z,5.16
2022-11-13T00:03:14.636Z,5.19
2022-11-13T00:06:00.267Z,4.98
2022-11-13T00:08:39.834Z,4.92
2022-11-13T00:11:20.373Z,4.90
2022-11-13T00:13:59.944Z,4.83
2022-11-13T00:16:40.824Z,4.82
2022-11-13T00:19:23.144Z,4.87
2022-11-13T00:22:02.635Z,4.90
2022-11-13T00:24:41.888Z,4.96
2022-11-13T00:27:21.336Z,4.95
2022-11-13T00:30:00.620Z,4.97
2022-11-13T00:32:41.639Z,5.07
2022-11-13T00:35:21.199Z,5.12
2022-11-13T00:38:00.856Z,5.12
2022-11-13T00:40:40.258Z,5.04
2022-11-13T00:43:19.820Z,5.01
2022-11-13T00:45:59.067Z,5.10
2022-11-13T00:48:39.935Z,5.07
2022-11-13T00:51:19.827Z,5.00
2022-11-13T00:53:59.260Z,4.92
2022-11-13T00:56:38.907Z,4.89
2022-11-13T00:59:18.642Z,4.90
2022-11-13T01:01:58.251Z,4.86
2022-11-13T01:04:39.482Z,4.85
2022-11-13T01:07:18.779Z,4.80
2022-11-13T01:09:58.367Z,4.76
2022-11-13T01:12:38.347Z,4.83
2022-11-13T01:15:17.627Z,4.71
2022-11-13T01:17:56.299Z,4.63
2022-11-13T01:20:37.372Z,4.63
2022-11-13T01:23:16.607Z,4.68
2022-11-13T01:25:55.115Z,4.74
2022-11-13T01:28:34.400Z,4.74
2022-11-13T01:31:14.715Z,4.78
2022-11-13T01:33:53.331Z,4.71
2022-11-13T01:36:34.616Z,4.72
2022-11-13T01:39:12.990Z,4.62
2022-11-13T01:41:52.720Z,4.59
2022-11-13T01:44:48.204Z,4.65
2022-11-13T01:47:27.987Z,4.65
2022-11-13T01:50:11.647Z,4.72
2022-11-13T01:52:52.482Z,4.66
2022-11-13T01:55:31.168Z,4.73
2022-11-13T01:58:11.463Z,4.66
2022-11-13T02:00:51.011Z,4.75
2022-11-13T02:03:30.557Z,4.83
2022-11-13T02:06:10.091Z,4.89
2022-11-13T02:08:52.042Z,4.88
2022-11-13T02:11:31.367Z,4.85
2022-11-13T02:14:11.921Z,4.85
2022-11-13T02:16:53.380Z,4.82
2022-11-13T02:19:34.462Z,4.82
2022-11-13T02:22:18.970Z,4.86
2022-11-13T02:25:01.435Z,4.86
2022-11-13T02:27:42.825Z,4.83
2022-11-13T02:30:27.257Z,4.85
2022-11-13T02:33:20.883Z,4.85
2022-11-13T02:36:00.682Z,4.86
2022-11-13T02:38:40.105Z,4.84
2022-11-13T02:41:20.882Z,4.83
2022-11-13T02:44:00.251Z,4.83
2022-11-13T02:46:39.580Z,4.81
2022-11-13T02:49:18.720Z,4.82
2022-11-13T02:51:58.192Z,4.80
2022-11-13T02:54:37.610Z,4.78
2022-11-13T02:57:17.529Z,4.83
2022-11-13T02:59:56.893Z,4.85
2022-11-13T03:02:36.655Z,4.88
2022-11-13T03:05:15.962Z,4.88
2022-11-13T03:07:55.911Z,4.89
2022-11-13T03:10:35.230Z,4.92
2022-11-13T03:13:15.802Z,5.00
2022-11-13T03:15:55.352Z,5.06
2022-11-13T03:18:34.762Z,5.09
2022-11-13T03:21:15.222Z,5.10
2022-11-13T03:23:54.968Z,5.09
2022-11-13T03:26:34.836Z,5.10
2022-11-13T03:29:16.076Z,5.14
2022-11-13T03:31:55.636Z,5.17
2022-11-13T03:34:33.976Z,5.19
2022-11-13T03:37:13.422Z,5.22
2022-11-13T03:39:52.814Z,5.21
2022-11-13T03:42:32.135Z,5.27
2022-11-13T03:45:13.175Z,5.30
2022-11-13T03:47:52.397Z,5.29
2022-11-13T03:50:32.053Z,5.27
2022-11-13T03:53:11.329Z,5.33
2022-11-13T03:55:50.854Z,5.37
2022-11-13T03:58:30.315Z,5.40
2022-11-13T04:01:12.518Z,5.47
2022-11-13T04:03:51.296Z,5.52
2022-11-13T04:06:30.537Z,5.60
2022-11-13T04:09:09.056Z,5.66
2022-11-13T04:11:48.598Z,5.71
2022-11-13T04:14:28.035Z,5.72
2022-11-13T04:17:08.935Z,5.72
2022-11-13T04:19:48.292Z,5.74
2022-11-13T04:22:27.784Z,5.77
2022-11-13T04:25:07.586Z,5.77
2022-11-13T04:27:47.418Z,5.67
2022-11-13T04:30:27.034Z,5.67
2022-11-13T04:33:07.971Z,5.63
2022-11-13T04:35:48.882Z,5.54
2022-11-13T04:38:28.689Z,5.48
2022-11-13T04:41:17.113Z,5.51
2022-11-13T04:43:56.935Z,5.53
2022-11-13T04:46:36.503Z,5.56
2022-11-13T04:49:17.227Z,5.58
2022-11-13T04:51:56.752Z,5.62
2022-11-13T04:54:36.132Z,5.64
2022-11-13T04:57:15.977Z,5.60
2022-11-13T04:59:55.644Z,5.59
2022-11-13T05:02:34.885Z,5.66
2022-11-13T05:05:15.553Z,5.67
2022-11-13T05:07:54.066Z,5.71
2022-11-13T05:10:34.571Z,5.78
2022-11-13T05:13:12.976Z,5.81
2022-11-13T05:15:52.644Z,5.82
2022-11-13T05:18:33.815Z,5.83
2022-11-13T05:21:14.653Z,5.82
2022-11-13T05:23:54.103Z,5.84
2022-11-13T05:26:33.780Z,5.88
2022-11-13T05:29:12.933Z,5.90
2022-11-13T05:31:52.396Z,5.95
2022-11-13T05:34:31.875Z,5.97
2022-11-13T05:37:12.717Z,5.97
2022-11-13T05:39:52.144Z,5.93
2022-11-13T05:42:31.506Z,5.90
2022-11-13T05:45:11.905Z,5.90
2022-11-13T05:47:51.424Z,5.98
2022-11-13T05:50:32.027Z,6.03
2022-11-13T05:53:13.287Z,6.05
2022-11-13T05:55:52.577Z,6.09
2022-11-13T05:58:32.576Z,6.12
2022-11-13T06:01:12.074Z,6.14
2022-11-13T06:03:51.588Z,6.15
2022-11-13T06:06:31.007Z,6.10
2022-11-13T06:09:17.372Z,6.09
2022-11-13T06:11:56.674Z,6.09
2022-11-13T06:14:36.052Z,6.06
2022-11-13T06:17:15.193Z,6.01
2022-11-13T06:19:54.673Z,6.02
2022-11-13T06:22:34.052Z,6.00
2022-11-13T06:25:14.583Z,5.87
2022-11-13T06:27:54.215Z,5.90
2022-11-13T06:30:33.444Z,5.93
2022-11-13T06:33:27.215Z,5.84
2022-11-13T06:36:08.444Z,5.91
2022-11-13T06:38:49.166Z,5.94
2022-11-13T06:41:31.684Z,5.94
2022-11-13T06:44:09.953Z,6.05
2022-11-13T06:46:49.236Z,6.18
2022-11-13T06:49:30.037Z,6.28
2022-11-13T06:52:09.169Z,6.37
2022-11-13T06:54:48.560Z,6.46
2022-11-13T06:57:26.996Z,6.52
2022-11-13T07:00:08.118Z,6.63
2022-11-13T07:02:50.028Z,6.78
2022-11-13T07:05:30.829Z,6.91
2022-11-13T07:08:10.029Z,7.00
2022-11-13T07:10:54.119Z,7.08
2022-11-13T07:13:33.389Z,7.20
2022-11-13T07:16:17.380Z,7.29
2022-11-13T07:18:57.150Z,7.41
2022-11-13T07:21:37.971Z,7.49
2022-11-13T07:24:17.851Z,7.58
2022-11-13T07:26:57.176Z,7.62
2022-11-13T07:29:39.501Z,7.71
2022-11-13T07:32:17.752Z,7.78
2022-11-13T07:34:57.004Z,7.81
2022-11-13T07:37:38.157Z,7.87
2022-11-13T07:40:18.031Z,7.93
2022-11-13T07:42:58.163Z,8.01
2022-11-13T07:45:37.342Z,8.06
2022-11-13T07:48:15.718Z,8.09
2022-11-13T07:50:55.734Z,8.19
2022-11-13T07:53:39.351Z,8.26
2022-11-13T07:56:23.170Z,8.37
2022-11-13T07:59:02.619Z,8.46
2022-11-13T08:01:40.862Z,8.55
2022-11-13T08:04:20.297Z,8.60
2022-11-13T08:06:59.879Z,8.70
2022-11-13T08:09:40.683Z,8.84
2022-11-13T08:12:20.006Z,8.96
2022-11-13T08:14:58.643Z,9.06
2022-11-13T08:17:37.222Z,9.14
2022-11-13T08:20:16.563Z,9.26
2022-11-13T08:22:58.243Z,9.32
2022-11-13T08:25:38.855Z,9.45
2022-11-13T08:28:18.006Z,9.57
2022-11-13T08:30:57.366Z,9.67
2022-11-13T08:33:36.746Z,9.81
2022-11-13T08:36:16.024Z,9.94
2022-11-13T08:38:55.495Z,10.04
2022-11-13T08:41:35.257Z,10.04
2022-11-13T08:44:15.055Z,10.12
2022-11-13T08:46:54.226Z,10.20
2022-11-13T08:49:34.397Z,10.38
2022-11-13T08:52:13.722Z,10.51
2022-11-13T08:54:53.173Z,10.70
2022-11-13T08:57:33.758Z,10.78
2022-11-13T09:00:13.580Z,10.86
2022-11-13T09:02:55.179Z,10.90
2022-11-13T09:05:34.835Z,11.01
2022-11-13T09:08:14.020Z,11.09
2022-11-13T09:10:53.430Z,11.18
2022-11-13T09:13:35.831Z,11.30
2022-11-13T09:16:18.376Z,11.43
2022-11-13T09:18:57.721Z,11.57
2022-11-13T09:21:37.101Z,11.65
2022-11-13T09:24:16.305Z,11.65
2022-11-13T09:26:55.575Z,11.61
2022-11-13T09:29:36.395Z,11.70
2022-11-13T09:32:16.115Z,11.81
2022-11-13T09:34:55.235Z,11.93
2022-11-13T09:37:35.196Z,12.05
2022-11-13T09:40:18.089Z,12.26
2022-11-13T09:42:57.884Z,12.36
2022-11-13T09:45:40.461Z,12.32
2022-11-13T09:48:27.049Z,12.52
2022-11-13T09:51:08.520Z,12.75
2022-11-13T09:53:48.730Z,12.77
2022-11-13T09:56:29.150Z,12.70
2022-11-13T09:59:16.808Z,12.81
2022-11-13T10:02:03.643Z,12.95
2022-11-13T10:04:51.509Z,12.94
2022-11-13T10:07:37.251Z,13.03
2022-11-13T10:10:35.410Z,13.25
2022-11-13T10:13:17.052Z,13.42
2022-11-13T10:16:03.999Z,13.65
2022-11-13T10:18:46.110Z,13.85
2022-11-13T10:21:30.964Z,13.93
2022-11-13T10:24:15.405Z,13.82
2022-11-13T10:26:57.024Z,13.93
2022-11-13T10:29:36.629Z,14.19
2022-11-13T10:32:20.109Z,14.30
2022-11-13T10:35:01.914Z,14.28
2022-11-13T10:37:50.259Z,14.30
2022-11-13T10:40:30.595Z,14.42
2022-11-13T10:43:15.687Z,14.61
2022-11-13T10:45:56.157Z,14.59
2022-11-13T10:48:36.335Z,14.63
2022-11-13T10:51:24.564Z,14.76
2022-11-13T10:54:17.713Z,14.95
2022-11-13T10:57:01.113Z,14.97
2022-11-13T10:59:41.205Z,14.99
2022-11-13T11:02:21.364Z,15.13
2022-11-13T11:05:05.695Z,14.92
2022-11-13T11:07:45.536Z,15.02
2022-11-13T11:10:27.924Z,15.26
2022-11-13T11:13:10.785Z,15.36
2022-11-13T11:15:52.400Z,15.61
2022-11-13T11:18:36.219Z,15.78
2022-11-13T11:21:17.569Z,15.79
2022-11-13T11:23:59.070Z,15.72
2022-11-13T11:26:41.049Z,15.74
2022-11-13T11:29:23.170Z,15.79
2022-11-13T11:32:06.811Z,15.87
2022-11-13T11:34:48.160Z,15.89
2022-11-13T11:37:31.811Z,15.92
2022-11-13T11:40:18.774Z,16.04
2022-11-13T11:43:02.750Z,16.02
2022-11-13T11:45:42.225Z,16.07
2022-11-13T11:48:22.877Z,16.19
2022-11-13T11:51:05.330Z,16.17
2022-11-13T11:53:49.299Z,16.15
2022-11-13T11:56:35.214Z,16.21
2022-11-13T11:59:21.474Z,16.39
2022-11-13T12:02:25.754Z,16.35
2022-11-13T12:05:19.547Z,16.34
2022-11-13T12:08:14.784Z,16.42
2022-11-13T12:10:58.926Z,16.43
2022-11-13T12:13:43.474Z,16.42
2022-11-13T12:16:25.706Z,16.34
2022-11-13T12:19:07.613Z,16.22
2022-11-13T12:21:53.834Z,16.27
2022-11-13T12:24:43.735Z,16.34
2022-11-13T12:27:27.061Z,16.38
2022-11-13T12:30:14.252Z,16.42
2022-11-13T12:33:04.379Z,16.48
2022-11-13T12:35:46.222Z,16.30
2022-11-13T12:38:36.340Z,16.26
2022-11-13T12:41:19.775Z,16.25
2022-11-13T12:44:05.201Z,16.24
2022-11-13T12:46:46.190Z,16.22
2022-11-13T12:49:32.284Z,16.17
2022-11-13T12:52:20.840Z,16.06
2022-11-13T12:55:07.521Z,16.04
2022-11-13T12:57:48.814Z,15.98
2022-11-13T13:00:31.577Z,15.95
2022-11-13T13:03:21.843Z,15.95
2022-11-13T13:06:11.321Z,15.85
2022-11-13T13:08:58.378Z,15.76
2022-11-13T13:11:40.699Z,15.72
2022-11-13T13:14:25.890Z,15.61
2022-11-13T13:17:18.200Z,15.48
2022-11-13T13:20:03.019Z,15.26
2022-11-13T13:22:42.339Z,15.18
2022-11-13T13:25:26.442Z,15.05
2022-11-13T13:28:19.912Z,14.97
2022-11-13T13:31:05.120Z,14.87
2022-11-13T13:33:51.534Z,14.63
2022-11-13T13:36:36.874Z,14.51
2022-11-13T13:39:26.197Z,14.40
2022-11-13T13:42:13.205Z,14.23
2022-11-13T13:45:01.274Z,14.04
2022-11-13T13:47:42.004Z,13.88
2022-11-13T13:50:23.064Z,13.65
2022-11-13T13:53:04.246Z,13.53
2022-11-13T13:55:47.167Z,13.46
2022-11-13T13:58:28.785Z,13.27
2022-11-13T14:01:18.998Z,13.23
2022-11-13T14:04:07.187Z,13.12
2022-11-13T14:06:51.324Z,13.11
2022-11-13T14:09:32.095Z,12.94
2022-11-13T14:12:18.722Z,12.83
2022-11-13T14:14:58.061Z,12.69
2022-11-13T14:17:39.451Z,12.61
2022-11-13T14:20:19.812Z,12.51
2022-11-13T14:23:02.090Z,12.36
2022-11-13T14:25:43.432Z,12.26
2022-11-13T14:28:22.630Z,12.13
2022-11-13T14:31:03.978Z,12.03
2022-11-13T14:33:44.980Z,11.90
2022-11-13T14:36:27.756Z,11.82
2022-11-13T14:39:07.016Z,11.74
2022-11-13T14:41:51.656Z,11.64
2022-11-13T14:44:32.533Z,11.56
2022-11-13T14:47:22.176Z,11.49
2022-11-13T14:50:10.451Z,11.41
2022-11-13T14:52:57.792Z,11.32
2022-11-13T14:55:38.791Z,11.26
2022-11-13T14:58:29.009Z,11.17
2022-11-13T15:01:16.557Z,11.08
2022-11-13T15:03:54.996Z,10.95
2022-11-13T15:06:38.641Z,10.83
2022-11-13T15:09:18.621Z,10.72
2022-11-13T15:11:58.123Z,10.67
2022-11-13T15:14:41.082Z,10.64
2022-11-13T15:17:21.212Z,10.61
2022-11-13T15:20:04.127Z,10.50
2022-11-13T15:22:46.576Z,10.43
2022-11-13T15:25:26.435Z,10.35
2022-11-13T15:28:05.925Z,10.20
2022-11-13T15:30:46.648Z,10.09
2022-11-13T15:33:26.019Z,9.94
2022-11-13T15:36:05.436Z,9.82
2022-11-13T15:38:45.141Z,9.78
2022-11-13T15:41:25.995Z,9.77
2022-11-13T15:44:08.809Z,9.73
2022-11-13T15:46:49.554Z,9.66
2022-11-13T15:49:27.885Z,9.52
2022-11-13T15:52:07.844Z,9.50
2022-11-13T15:54:48.578Z,9.47
2022-11-13T15:57:28.775Z,9.40
2022-11-13T16:00:11.775Z,9.26
2022-11-13T16:02:54.986Z,9.20
2022-11-13T16:05:34.159Z,9.15
2022-11-13T16:08:13.789Z,9.07
2022-11-13T16:10:54.686Z,9.00
2022-11-13T16:13:33.912Z,8.95
2022-11-13T16:16:16.433Z,8.92
2022-11-13T16:19:00.164Z,8.85
2022-11-13T16:21:41.076Z,8.73
2022-11-13T16:24:23.963Z,8.60
2022-11-13T16:27:03.955Z,8.55
2022-11-13T16:29:43.194Z,8.54
2022-11-13T16:32:22.924Z,8.45
2022-11-13T16:35:03.541Z,8.38
2022-11-13T16:37:42.751Z,8.33
2022-11-13T16:40:24.324Z,8.29
2022-11-13T16:43:03.550Z,8.27
2022-11-13T16:45:44.971Z,8.24
2022-11-13T16:48:24.161Z,8.23
2022-11-13T16:51:04.834Z,8.31
2022-11-13T16:53:44.351Z,8.35
2022-11-13T16:56:28.301Z,8.24
2022-11-13T16:59:07.554Z,8.19
2022-11-13T17:01:47.300Z,8.05
2022-11-13T17:04:26.551Z,7.96
2022-11-13T17:07:07.434Z,7.96
2022-11-13T17:09:55.120Z,7.98
2022-11-13T17:12:43.760Z,8.03
2022-11-13T17:15:23.290Z,7.94
2022-11-13T17:18:03.048Z,7.86
2022-11-13T17:20:42.250Z,7.85
2022-11-13T17:23:22.981Z,7.74
2022-11-13T17:26:02.512Z,7.71
2022-11-13T17:28:40.798Z,7.73
2022-11-13T17:31:20.452Z,7.80
2022-11-13T17:34:00.619Z,7.75
2022-11-13T17:36:40.007Z,7.71
2022-11-13T17:39:20.763Z,7.75
2022-11-13T17:42:00.253Z,7.65
2022-11-13T17:44:39.690Z,7.61
2022-11-13T17:47:18.942Z,7.55
2022-11-13T17:50:03.924Z,7.39
2022-11-13T17:52:47.212Z,7.34
2022-11-13T17:55:28.242Z,7.25
2022-11-13T17:58:07.861Z,7.15
2022-11-13T18:00:47.331Z,7.02
2022-11-13T18:03:27.241Z,6.89
2022-11-13T18:06:06.473Z,6.68
2022-11-13T18:08:45.712Z,6.67
2022-11-13T18:11:26.721Z,6.80
2022-11-13T18:14:06.290Z,6.74
2022-11-13T18:16:45.642Z,6.83
2022-11-13T18:19:25.216Z,6.74
2022-11-13T18:22:04.541Z,6.64
2022-11-13T18:24:44.308Z,6.67
2022-11-13T18:27:25.193Z,6.71
2022-11-13T18:30:04.775Z,6.52
2022-11-13T18:32:44.191Z,6.41
2022-11-13T18:35:23.633Z,6.37
2022-11-13T18:38:03.452Z,6.24
2022-11-13T18:40:42.052Z,6.17
2022-11-13T18:43:22.955Z,6.11
2022-11-13T18:46:04.867Z,5.98
2022-11-13T18:48:44.802Z,5.91
2022-11-13T18:51:25.493Z,6.04
2022-11-13T18:54:09.495Z,6.02
2022-11-13T18:56:49.404Z,5.90
2022-11-13T18:59:30.983Z,5.92
2022-11-13T19:02:11.503Z,5.93
2022-11-13T19:04:51.044Z,5.95
2022-11-13T19:07:30.244Z,5.89
2022-11-13T19:10:09.744Z,5.97
2022-11-13T19:12:50.541Z,5.94
2022-11-13T19:15:31.654Z,5.95
2022-11-13T19:18:11.031Z,5.91
2022-11-13T19:20:51.035Z,5.92
2022-11-13T19:23:31.263Z,5.80
2022-11-13T19:26:12.960Z,5.69
2022-11-13T19:28:52.866Z,5.69
2022-11-13T19:31:34.752Z,5.78
2022-11-13T19:34:15.101Z,5.80
2022-11-13T19:36:54.715Z,5.76
2022-11-13T19:39:34.272Z,5.62
2022-11-13T19:42:13.852Z,5.65
2022-11-13T19:44:52.251Z,5.76
2022-11-13T19:47:33.232Z,5.81
2022-11-13T19:50:12.964Z,5.84
2022-11-13T19:52:52.370Z,5.77
2022-11-13T19:55:31.789Z,5.67
2022-11-13T19:58:11.082Z,5.65
2022-11-13T20:00:50.654Z,5.63
2022-11-13T20:03:30.580Z,5.65
2022-11-13T20:06:09.520Z,5.74
2022-11-13T20:08:47.722Z,5.63
2022-11-13T20:11:26.233Z,5.59
2022-11-13T20:14:05.763Z,5.47
2022-11-13T20:16:45.182Z,5.32
2022-11-13T20:19:26.160Z,5.26
2022-11-13T20:22:05.612Z,5.20
2022-11-13T20:24:44.163Z,5.23
2022-11-13T20:27:23.786Z,5.21
2022-11-13T20:30:03.504Z,5.08
2022-11-13T20:32:42.404Z,5.10
2022-11-13T20:35:23.331Z,5.21
2022-11-13T20:38:02.732Z,5.29
2022-11-13T20:40:42.595Z,5.30
2022-11-13T20:43:21.130Z,5.29
2022-11-13T20:46:03.806Z,5.33
2022-11-13T20:48:44.405Z,5.36
2022-11-13T20:51:26.860Z,5.37
2022-11-13T20:54:06.222Z,5.41
2022-11-13T20:56:45.669Z,5.40
2022-11-13T20:59:25.217Z,5.44
2022-11-13T21:02:04.876Z,5.43
2022-11-13T21:04:44.253Z,5.47
2022-11-13T21:07:24.423Z,5.48
2022-11-13T21:10:04.922Z,5.42
2022-11-13T21:12:44.164Z,5.38
2022-11-13T21:15:23.711Z,5.38
2022-11-13T21:18:03.675Z,5.32
2022-11-13T21:20:43.092Z,5.31
2022-11-13T21:23:24.441Z,5.31
2022-11-13T21:26:05.857Z,5.27
2022-11-13T21:28:45.212Z,5.27
2022-11-13T21:31:24.830Z,5.28
2022-11-13T21:34:04.383Z,5.25
2022-11-13T21:36:45.216Z,5.26
2022-11-13T21:39:26.180Z,5.19
2022-11-13T21:42:05.926Z,5.18
2022-11-13T21:44:45.482Z,5.09
2022-11-13T21:47:26.330Z,5.12
2022-11-13T21:50:05.740Z,5.12
2022-11-13T21:52:44.959Z,4.98
2022-11-13T21:55:26.081Z,4.91
2022-11-13T21:58:05.460Z,4.72
2022-11-13T22:00:45.110Z,4.61
2022-11-13T22:03:24.419Z,4.71
2022-11-13T22:06:15.333Z,4.74
2022-11-13T22:08:57.043Z,4.71
2022-11-13T22:11:37.831Z,4.80
2022-11-13T22:14:17.560Z,4.88
2022-11-13T22:16:57.252Z,4.73
2022-11-13T22:19:36.758Z,4.74
2022-11-13T22:22:16.312Z,4.74
2022-11-13T22:24:55.914Z,4.78
2022-11-13T22:27:36.831Z,4.73
2022-11-13T22:30:16.724Z,4.57
2022-11-13T22:32:56.791Z,4.56
2022-11-13T22:35:36.393Z,4.63
2022-11-13T22:38:16.843Z,4.44
2022-11-13T22:40:57.469Z,4.25
2022-11-13T22:43:38.531Z,4.26
2022-11-13T22:46:19.704Z,4.17
2022-11-13T22:49:01.903Z,4.12
2022-11-13T22:51:42.420Z,4.14
2022-11-13T22:54:21.953Z,4.11
2022-11-13T22:57:04.433Z,4.10
2022-11-13T22:59:44.404Z,4.04
2022-11-13T23:02:24.036Z,4.04
2022-11-13T23:05:03.552Z,4.06
2022-11-13T23:07:42.224Z,3.86
2022-11-13T23:10:25.724Z,3.94
2022-11-13T23:13:05.127Z,4.02
2022-11-13T23:15:46.111Z,4.02
2022-11-13T23:18:25.542Z,4.01
2022-11-13T23:21:06.954Z,4.03
2022-11-13T23:23:46.457Z,4.00
2022-11-13T23:26:25.607Z,4.06
2022-11-13T23:29:04.945Z,3.99
2022-11-13T23:31:45.662Z,3.88
2022-11-13T23:34:45.518Z,3.83
2022-11-13T23:37:23.972Z,3.95
2022-11-13T23:40:03.442Z,3.86
2022-11-13T23:42:54.781Z,3.90
2022-11-13T23:45:35.176Z,3.74
2022-11-13T23:48:16.041Z,3.70
2022-11-13T23:50:55.361Z,3.65
2022-11-13T23:53:34.721Z,3.67
2022-11-13T23:56:13.302Z,3.74
2022-11-13T23:58:53.182Z,3.63
